createdAt,value
2022-10-07T00:01:37.984Z,8.80
2022-10-07T00:04:05.133Z,8.80
2022-10-07T00:06:33.579Z,8.80
2022-10-07T00:09:02.454Z,8.80
2022-10-07T00:11:30.284Z,8.70
2022-10-07T00:14:00.715Z,8.70
2022-10-07T00:16:30.677Z,8.60
2022-10-07T00:19:00.686Z,8.50
2022-10-07T00:21:32.079Z,8.60
2022-10-07T00:24:07.212Z,8.60
2022-10-07T00:26:38.056Z,8.50
2022-10-07T00:29:07.238Z,8.50
2022-10-07T00:31:36.931Z,8.60
2022-10-07T00:34:05.321Z,8.70
2022-10-07T00:36:35.241Z,8.70
2022-10-07T00:39:05.897Z,8.60
2022-10-07T00:41:43.563Z,8.60
2022-10-07T00:44:32.774Z,8.60
2022-10-07T00:47:03.639Z,8.60
2022-10-07T00:49:36.133Z,8.60
2022-10-07T00:52:03.619Z,8.40
2022-10-07T00:54:34.150Z,8.40
2022-10-07T00:57:01.359Z,8.40
2022-10-07T00:59:29.769Z,8.40
2022-10-07T01:01:58.051Z,8.50
2022-10-07T01:04:25.793Z,8.40
2022-10-07T01:06:57.400Z,8.50
2022-10-07T01:09:27.840Z,8.50
2022-10-07T01:12:08.574Z,8.40
2022-10-07T01:15:00.099Z,8.40
2022-10-07T01:17:54.044Z,8.40
2022-10-07T01:21:04.529Z,8.30
2022-10-07T01:24:04.300Z,8.40
2022-10-07T01:26:45.597Z,8.20
2022-10-07T01:29:19.456Z,8.20
2022-10-07T01:31:54.409Z,8.30
2022-10-07T01:34:24.647Z,8.30
2022-10-07T01:36:54.451Z,8.30
2022-10-07T01:39:29.695Z,8.20
2022-10-07T01:41:59.311Z,8.20
2022-10-07T01:44:30.202Z,8.20
2022-10-07T01:46:59.030Z,8.10
2022-10-07T01:49:26.866Z,8.00
2022-10-07T01:52:27.862Z,8.00
2022-10-07T01:55:33.195Z,8.00
2022-10-07T01:58:03.722Z,8.00
2022-10-07T02:00:31.578Z,8.00
2022-10-07T02:03:30.921Z,8.00
2022-10-07T02:06:15.917Z,8.00
2022-10-07T02:08:50.062Z,8.00
2022-10-07T02:11:42.845Z,8.00
2022-10-07T02:14:20.162Z,8.10
2022-10-07T02:16:49.972Z,8.00
2022-10-07T02:19:53.409Z,8.00
2022-10-07T02:22:23.926Z,7.80
2022-10-07T02:24:55.912Z,7.80
2022-10-07T02:27:33.459Z,7.90
2022-10-07T02:30:06.902Z,7.80
2022-10-07T02:32:35.028Z,7.90
2022-10-07T02:35:08.908Z,7.90
2022-10-07T02:37:42.083Z,7.80
2022-10-07T02:40:12.139Z,7.90
2022-10-07T02:42:59.029Z,7.90
2022-10-07T02:45:43.747Z,7.80
2022-10-07T02:48:36.468Z,7.60
2022-10-07T02:51:10.381Z,7.60
2022-10-07T02:53:39.399Z,7.70
2022-10-07T02:56:08.141Z,7.80
2022-10-07T02:58:42.482Z,7.80
2022-10-07T03:01:12.376Z,7.90
2022-10-07T03:03:42.952Z,7.90
2022-10-07T03:06:12.930Z,7.80
2022-10-07T03:08:40.843Z,7.80
2022-10-07T03:11:09.686Z,7.80
2022-10-07T03:13:36.413Z,7.80
2022-10-07T03:16:09.091Z,7.80
2022-10-07T03:18:36.748Z,7.80
2022-10-07T03:21:04.896Z,7.80
2022-10-07T03:23:35.609Z,7.80
2022-10-07T03:26:05.442Z,7.70
2022-10-07T03:28:38.708Z,7.70
2022-10-07T03:31:10.459Z,7.70
2022-10-07T03:33:38.281Z,7.40
2022-10-07T03:36:12.035Z,7.50
2022-10-07T03:38:40.704Z,7.40
2022-10-07T03:41:11.289Z,7.30
2022-10-07T03:43:38.443Z,7.30
2022-10-07T03:46:06.782Z,7.40
2022-10-07T03:48:39.215Z,7.30
2022-10-07T03:51:05.978Z,7.30
2022-10-07T03:53:33.337Z,7.40
2022-10-07T03:56:00.499Z,7.50
2022-10-07T03:58:29.837Z,7.50
2022-10-07T04:01:12.852Z,7.50
2022-10-07T04:03:52.515Z,7.30
2022-10-07T04:06:19.305Z,7.40
2022-10-07T04:08:48.625Z,7.40
2022-10-07T04:11:18.497Z,7.40
2022-10-07T04:13:46.479Z,7.10
2022-10-07T04:16:13.635Z,7.20
2022-10-07T04:18:43.794Z,7.30
2022-10-07T04:21:11.307Z,7.30
2022-10-07T04:23:41.795Z,7.50
2022-10-07T04:26:11.296Z,7.50
2022-10-07T04:28:39.476Z,7.40
2022-10-07T04:31:14.066Z,7.50
2022-10-07T04:33:43.478Z,7.60
2022-10-07T04:36:13.229Z,7.40
2022-10-07T04:38:40.063Z,7.50
2022-10-07T04:41:10.516Z,7.40
2022-10-07T04:43:45.613Z,7.30
2022-10-07T04:46:18.266Z,7.30
2022-10-07T04:49:07.581Z,7.20
2022-10-07T04:51:49.630Z,7.00
2022-10-07T04:54:16.276Z,6.80
2022-10-07T04:56:44.844Z,6.80
2022-10-07T04:59:14.147Z,6.80
2022-10-07T05:01:46.496Z,6.90
2022-10-07T05:04:18.817Z,7.00
2022-10-07T05:06:47.100Z,7.10
2022-10-07T05:09:14.603Z,7.10
2022-10-07T05:11:44.629Z,7.10
2022-10-07T05:14:11.320Z,7.00
2022-10-07T05:16:38.078Z,7.00
2022-10-07T05:19:04.784Z,7.10
2022-10-07T05:21:32.195Z,7.10
2022-10-07T05:23:59.536Z,7.20
2022-10-07T05:26:28.300Z,7.20
2022-10-07T05:28:55.542Z,7.10
2022-10-07T05:31:24.533Z,7.00
2022-10-07T05:33:51.611Z,7.10
2022-10-07T05:36:20.129Z,7.40
2022-10-07T05:38:48.125Z,7.30
2022-10-07T05:41:15.307Z,7.30
2022-10-07T05:43:43.896Z,7.20
2022-10-07T05:46:13.638Z,7.40
2022-10-07T05:48:41.928Z,7.60
2022-10-07T05:51:08.947Z,7.70
2022-10-07T05:53:41.168Z,7.70
2022-10-07T05:56:09.822Z,7.70
2022-10-07T05:58:37.383Z,7.80
2022-10-07T06:01:13.913Z,7.50
2022-10-07T06:03:44.369Z,7.50
2022-10-07T06:06:11.761Z,7.70
2022-10-07T06:08:49.551Z,7.80
2022-10-07T06:11:39.235Z,8.00
2022-10-07T06:14:13.411Z,8.50
2022-10-07T06:16:42.485Z,8.80
2022-10-07T06:19:28.019Z,9.20
2022-10-07T06:21:54.686Z,9.70
2022-10-07T06:24:26.254Z,10.30
2022-10-07T06:26:55.678Z,10.90
2022-10-07T06:29:23.856Z,10.80
2022-10-07T06:31:56.785Z,10.80
2022-10-07T06:34:24.760Z,10.10
2022-10-07T06:36:53.417Z,10.00
2022-10-07T06:39:24.152Z,9.80
2022-10-07T06:41:59.065Z,9.80
2022-10-07T06:44:28.687Z,9.70
2022-10-07T06:46:59.124Z,9.70
2022-10-07T06:49:27.368Z,10.10
2022-10-07T06:52:00.156Z,10.20
2022-10-07T06:54:27.488Z,10.00
2022-10-07T06:56:55.522Z,10.10
2022-10-07T06:59:33.437Z,10.20
2022-10-07T07:02:11.259Z,10.10
2022-10-07T07:04:42.646Z,10.10
2022-10-07T07:07:10.097Z,10.30
2022-10-07T07:09:40.732Z,10.40
2022-10-07T07:12:08.960Z,10.50
2022-10-07T07:14:40.232Z,10.80
2022-10-07T07:17:07.661Z,11.40
2022-10-07T07:19:37.309Z,12.10
2022-10-07T07:22:12.131Z,13.50
2022-10-07T07:24:47.717Z,15.50
2022-10-07T07:27:18.381Z,16.90
2022-10-07T07:29:45.599Z,18.50
2022-10-07T07:32:14.123Z,20.00
2022-10-07T07:34:42.831Z,20.80
2022-10-07T07:37:14.044Z,21.00
2022-10-07T07:39:43.076Z,21.40
2022-10-07T07:42:11.380Z,21.50
2022-10-07T07:44:45.839Z,21.80
2022-10-07T07:47:13.463Z,21.30
2022-10-07T07:49:40.484Z,22.70
2022-10-07T07:52:10.291Z,21.80
2022-10-07T07:54:40.162Z,21.00
2022-10-07T07:57:07.150Z,21.30
2022-10-07T07:59:35.266Z,21.80
2022-10-07T08:02:02.627Z,23.00
2022-10-07T08:04:31.812Z,22.70
2022-10-07T08:07:04.089Z,21.60
2022-10-07T08:09:34.313Z,21.70
2022-10-07T08:12:02.978Z,22.00
2022-10-07T08:14:41.559Z,21.00
2022-10-07T08:19:57.443Z,20.20
2022-10-07T08:22:31.773Z,21.60
2022-10-07T08:25:00.601Z,21.40
2022-10-07T08:27:29.733Z,21.60
2022-10-07T08:29:56.594Z,22.20
2022-10-07T08:32:25.744Z,22.50
2022-10-07T08:34:52.429Z,21.70
2022-10-07T08:37:21.096Z,22.00
2022-10-07T08:39:48.324Z,21.10
2022-10-07T08:42:33.329Z,20.60
2022-10-07T08:45:01.190Z,19.90
2022-10-07T08:47:38.699Z,19.90
2022-10-07T08:50:36.581Z,20.40
2022-10-07T08:53:11.690Z,19.80
2022-10-07T08:56:23.944Z,19.10
2022-10-07T08:59:04.212Z,18.60
2022-10-07T09:01:51.038Z,18.10
2022-10-07T09:04:47.816Z,17.80
2022-10-07T09:07:38.402Z,18.30
2022-10-07T09:10:28.894Z,18.90
2022-10-07T09:13:17.392Z,18.10
2022-10-07T09:15:58.447Z,17.70
2022-10-07T09:18:45.489Z,17.50
2022-10-07T09:21:19.213Z,17.40
2022-10-07T09:23:51.215Z,17.30
2022-10-07T09:26:19.219Z,17.30
2022-10-07T09:28:57.850Z,17.10
2022-10-07T09:31:28.150Z,17.20
2022-10-07T09:33:57.298Z,17.60
2022-10-07T09:36:27.060Z,17.60
2022-10-07T09:38:55.740Z,17.50
2022-10-07T09:41:46.545Z,17.40
2022-10-07T09:44:42.121Z,17.20
2022-10-07T09:47:29.544Z,17.50
2022-10-07T09:50:00.016Z,17.60
2022-10-07T09:52:29.964Z,17.30
2022-10-07T09:55:21.623Z,17.40
2022-10-07T09:58:05.010Z,17.30
2022-10-07T10:00:43.795Z,17.50
2022-10-07T10:03:12.116Z,17.60
2022-10-07T10:08:49.344Z,17.80
2022-10-07T10:11:30.435Z,18.00
2022-10-07T10:13:58.266Z,17.90
2022-10-07T10:16:25.618Z,17.80
2022-10-07T10:21:58.083Z,17.60
2022-10-07T10:24:47.380Z,17.60
2022-10-07T10:27:30.721Z,17.40
2022-10-07T10:30:15.112Z,17.50
2022-10-07T10:33:24.298Z,17.40
2022-10-07T10:36:31.784Z,17.70
2022-10-07T10:39:03.761Z,18.40
2022-10-07T10:41:59.586Z,18.80
2022-10-07T10:44:49.114Z,19.00
2022-10-07T10:47:47.111Z,18.90
2022-10-07T10:50:47.353Z,19.00
2022-10-07T10:53:49.304Z,18.60
2022-10-07T10:56:21.009Z,18.40
2022-10-07T10:59:14.405Z,18.20
2022-10-07T11:01:47.286Z,18.10
2022-10-07T11:04:51.549Z,18.10
2022-10-07T11:07:52.302Z,18.00
2022-10-07T11:10:27.348Z,18.20
2022-10-07T11:13:02.465Z,18.20
2022-10-07T11:15:39.067Z,18.40
2022-10-07T11:18:12.911Z,18.40
2022-10-07T11:20:48.071Z,18.10
2022-10-07T11:23:55.778Z,18.20
2022-10-07T11:26:41.728Z,18.30
2022-10-07T11:29:39.872Z,18.40
2022-10-07T11:32:50.144Z,18.20
2022-10-07T11:35:27.463Z,18.30
2022-10-07T11:38:20.010Z,18.40
2022-10-07T11:41:21.446Z,18.50
2022-10-07T11:43:53.453Z,18.40
2022-10-07T11:46:42.904Z,18.40
2022-10-07T11:49:44.286Z,18.60
2022-10-07T11:52:24.619Z,18.70
2022-10-07T11:54:59.974Z,18.50
2022-10-07T11:57:33.134Z,18.50
2022-10-07T12:00:13.406Z,18.40
2022-10-07T12:02:44.953Z,18.50
2022-10-07T12:05:38.094Z,18.60
2022-10-07T12:08:42.669Z,18.60
2022-10-07T12:11:17.041Z,18.60
2022-10-07T12:14:03.111Z,18.80
2022-10-07T12:16:40.036Z,18.80
2022-10-07T12:19:10.672Z,18.90
2022-10-07T12:21:59.856Z,18.90
2022-10-07T12:24:29.975Z,19.00
2022-10-07T12:27:20.414Z,19.00
2022-10-07T12:29:51.003Z,19.00
2022-10-07T12:32:40.102Z,18.90
2022-10-07T12:35:35.097Z,18.90
2022-10-07T12:38:06.812Z,18.80
2022-10-07T12:40:37.438Z,19.00
2022-10-07T12:43:33.290Z,19.00
2022-10-07T12:46:02.224Z,19.10
2022-10-07T12:48:37.104Z,19.10
2022-10-07T12:51:10.540Z,19.20
2022-10-07T12:53:44.071Z,19.20
2022-10-07T12:56:44.215Z,19.20
2022-10-07T12:59:50.655Z,19.20
2022-10-07T13:02:39.419Z,19.30
2022-10-07T13:05:45.782Z,19.40
2022-10-07T13:08:50.409Z,19.30
2022-10-07T13:11:47.882Z,19.40
2022-10-07T13:14:36.513Z,19.40
2022-10-07T13:17:31.320Z,19.60
2022-10-07T13:20:41.844Z,19.60
2022-10-07T13:23:40.379Z,19.40
2022-10-07T13:26:24.828Z,19.30
2022-10-07T13:29:03.162Z,19.20
2022-10-07T13:31:38.399Z,19.20
2022-10-07T13:34:18.080Z,19.30
2022-10-07T13:36:49.292Z,19.30
2022-10-07T13:42:21.351Z,19.80
2022-10-07T13:44:54.569Z,19.20
2022-10-07T13:47:26.527Z,19.10
2022-10-07T13:49:55.376Z,19.20
2022-10-07T13:52:37.025Z,19.30
2022-10-07T13:55:20.200Z,19.20
2022-10-07T13:57:51.541Z,19.20
2022-10-07T14:00:18.527Z,19.20
2022-10-07T14:02:47.237Z,19.30
2022-10-07T14:05:29.619Z,19.20
2022-10-07T14:08:11.725Z,19.20
2022-10-07T14:16:22.551Z,19.00
2022-10-07T14:24:22.503Z,19.20
2022-10-07T14:27:23.488Z,19.20
2022-10-07T14:30:03.952Z,19.10
2022-10-07T14:32:51.727Z,19.10
2022-10-07T14:38:30.671Z,19.10
2022-10-07T14:40:59.672Z,18.90
2022-10-07T14:43:38.375Z,18.90
2022-10-07T14:49:11.541Z,18.80
2022-10-07T14:51:44.753Z,18.70
2022-10-07T14:56:59.646Z,18.70
2022-10-07T14:59:40.671Z,19.00
2022-10-07T15:07:30.576Z,18.60
2022-10-07T15:12:38.096Z,18.50
2022-10-07T15:23:25.530Z,18.40
2022-10-07T15:28:40.663Z,18.50
2022-10-07T15:34:07.797Z,18.60
2022-10-07T15:36:50.781Z,18.40
2022-10-07T15:39:25.020Z,18.20
2022-10-07T15:44:59.151Z,18.30
2022-10-07T15:47:28.709Z,18.10
2022-10-07T15:49:57.950Z,17.90
2022-10-07T15:52:40.947Z,18.40
2022-10-07T15:55:13.318Z,18.00
2022-10-07T16:00:42.773Z,18.10
2022-10-07T16:03:13.169Z,18.20
2022-10-07T16:05:39.970Z,18.00
2022-10-07T16:08:08.928Z,18.10
2022-10-07T16:10:37.387Z,18.00
2022-10-07T16:13:11.516Z,18.00
2022-10-07T16:15:38.440Z,17.50
2022-10-07T16:18:10.237Z,17.40
2022-10-07T16:20:43.686Z,17.60
2022-10-07T16:23:10.814Z,17.80
2022-10-07T16:25:38.366Z,17.50
2022-10-07T16:28:27.254Z,18.30
2022-10-07T16:30:55.048Z,17.50
2022-10-07T16:33:23.264Z,17.30
2022-10-07T16:35:50.891Z,17.30
2022-10-07T16:38:20.757Z,17.10
2022-10-07T16:40:54.540Z,17.10
2022-10-07T16:46:23.579Z,17.00
2022-10-07T16:48:54.372Z,17.00
2022-10-07T16:51:25.492Z,17.00
2022-10-07T16:56:50.474Z,16.80
2022-10-07T16:59:24.034Z,16.70
2022-10-07T17:01:54.983Z,16.70
2022-10-07T17:04:23.999Z,16.70
2022-10-07T17:06:53.214Z,16.70
2022-10-07T17:09:24.187Z,16.50
2022-10-07T17:11:52.681Z,16.50
2022-10-07T17:14:22.187Z,16.50
2022-10-07T17:16:57.827Z,16.40
2022-10-07T17:19:29.812Z,16.50
2022-10-07T17:22:01.547Z,16.40
2022-10-07T17:24:32.843Z,16.30
2022-10-07T17:27:05.116Z,16.40
2022-10-07T17:29:36.640Z,16.40
2022-10-07T17:35:26.894Z,16.50
2022-10-07T17:38:07.037Z,16.60
2022-10-07T17:40:38.526Z,16.70
2022-10-07T17:43:09.430Z,16.70
2022-10-07T17:45:42.723Z,16.70
2022-10-07T17:48:16.265Z,16.60
2022-10-07T17:50:47.095Z,16.60
2022-10-07T17:53:20.448Z,16.50
2022-10-07T17:55:52.254Z,16.40
2022-10-07T17:58:24.131Z,16.50
2022-10-07T18:00:57.101Z,16.30
2022-10-07T18:06:11.708Z,16.30
2022-10-07T18:08:42.655Z,16.30
2022-10-07T18:11:13.045Z,16.20
2022-10-07T18:14:01.453Z,16.20
2022-10-07T18:16:39.282Z,16.30
2022-10-07T18:19:07.147Z,16.40
2022-10-07T18:21:36.415Z,16.40
2022-10-07T18:24:11.818Z,16.10
2022-10-07T18:26:43.809Z,16.50
2022-10-07T18:29:16.030Z,16.60
2022-10-07T18:31:43.843Z,16.80
2022-10-07T18:34:12.142Z,16.90
2022-10-07T18:36:39.480Z,16.70
2022-10-07T18:39:14.393Z,16.70
2022-10-07T18:42:12.084Z,16.80
2022-10-07T18:44:46.098Z,16.70
2022-10-07T18:47:18.680Z,16.60
2022-10-07T18:49:45.610Z,16.60
2022-10-07T18:52:14.782Z,16.60
2022-10-07T18:54:50.562Z,16.70
2022-10-07T19:00:09.441Z,17.00
2022-10-07T19:02:43.614Z,16.90
2022-10-07T19:05:13.558Z,16.80
2022-10-07T19:07:41.476Z,16.80
2022-10-07T19:10:14.706Z,16.80
2022-10-07T19:13:03.082Z,16.90
2022-10-07T19:15:32.910Z,16.80
2022-10-07T19:18:05.384Z,16.90
2022-10-07T19:20:48.597Z,16.90
2022-10-07T19:23:15.937Z,16.80
2022-10-07T19:25:49.785Z,16.50
2022-10-07T19:28:26.867Z,16.40
2022-10-07T19:30:55.735Z,16.20
2022-10-07T19:33:27.221Z,16.00
2022-10-07T19:36:05.938Z,15.90
2022-10-07T19:38:33.287Z,15.90
2022-10-07T19:41:03.393Z,15.90
2022-10-07T19:43:31.034Z,16.00
2022-10-07T19:46:04.209Z,15.90
2022-10-07T19:48:37.231Z,16.00
2022-10-07T19:51:09.778Z,15.80
2022-10-07T19:53:42.180Z,15.80
2022-10-07T19:56:25.302Z,15.80
2022-10-07T19:58:55.770Z,15.80
2022-10-07T20:01:29.517Z,16.10
2022-10-07T20:04:05.372Z,16.00
2022-10-07T20:06:37.454Z,16.10
2022-10-07T20:09:06.312Z,16.10
2022-10-07T20:11:36.532Z,16.00
2022-10-07T20:16:48.093Z,16.00
2022-10-07T20:19:18.617Z,16.80
2022-10-07T20:21:47.515Z,16.10
2022-10-07T20:24:24.166Z,16.20
2022-10-07T20:29:58.425Z,15.90
2022-10-07T20:32:26.763Z,15.90
2022-10-07T20:35:00.104Z,15.90
2022-10-07T20:37:32.963Z,16.00
2022-10-07T20:40:19.032Z,16.10
2022-10-07T20:42:47.214Z,16.10
2022-10-07T20:45:17.128Z,16.10
2022-10-07T20:47:46.730Z,16.10
2022-10-07T20:50:13.704Z,16.10
2022-10-07T20:52:42.397Z,16.10
2022-10-07T20:55:17.161Z,16.20
2022-10-07T20:57:47.007Z,16.20
2022-10-07T21:00:17.641Z,16.30
2022-10-07T21:02:47.567Z,16.40
2022-10-07T21:05:17.928Z,16.30
2022-10-07T21:07:54.908Z,16.40
2022-10-07T21:10:23.177Z,16.30
2022-10-07T21:12:50.456Z,16.20
2022-10-07T21:15:19.256Z,16.10
2022-10-07T21:17:49.344Z,16.20
2022-10-07T21:20:16.583Z,16.20
2022-10-07T21:22:44.525Z,16.30
2022-10-07T21:25:15.596Z,16.40
2022-10-07T21:27:43.829Z,16.40
2022-10-07T21:30:11.412Z,16.40
2022-10-07T21:32:38.295Z,16.60
2022-10-07T21:35:06.835Z,16.60
2022-10-07T21:37:33.736Z,16.60
2022-10-07T21:40:00.893Z,16.60
2022-10-07T21:42:29.305Z,16.60
2022-10-07T21:44:58.925Z,16.50
2022-10-07T21:47:26.049Z,16.50
2022-10-07T21:49:54.484Z,16.40
2022-10-07T21:52:21.353Z,16.50
2022-10-07T21:54:50.147Z,16.30
2022-10-07T21:57:17.440Z,16.40
2022-10-07T21:59:47.581Z,16.50
2022-10-07T22:02:18.408Z,16.30
2022-10-07T22:04:47.452Z,16.20
2022-10-07T22:07:33.204Z,16.10
2022-10-07T22:10:02.478Z,16.00
2022-10-07T22:12:35.295Z,15.90
2022-10-07T22:15:03.375Z,15.80
2022-10-07T22:17:31.192Z,15.80
2022-10-07T22:19:58.985Z,15.70
2022-10-07T22:22:25.916Z,15.70
2022-10-07T22:24:55.480Z,15.60
2022-10-07T22:27:22.306Z,15.60
2022-10-07T22:29:50.792Z,15.40
2022-10-07T22:32:18.028Z,15.30
2022-10-07T22:35:04.868Z,15.50
2022-10-07T22:37:32.049Z,15.40
2022-10-07T22:39:59.282Z,15.40
2022-10-07T22:42:27.072Z,15.30
2022-10-07T22:44:54.143Z,15.30
2022-10-07T22:47:21.596Z,15.40
2022-10-07T22:49:49.053Z,15.60
2022-10-07T22:52:15.844Z,15.60
2022-10-07T22:54:44.877Z,15.50
2022-10-07T22:57:11.821Z,15.50
2022-10-07T22:59:41.933Z,15.60
2022-10-07T23:02:09.890Z,15.70
2022-10-07T23:04:37.331Z,15.80
2022-10-07T23:07:05.675Z,16.10
2022-10-07T23:09:33.273Z,16.10
2022-10-07T23:12:00.986Z,16.30
2022-10-07T23:14:28.091Z,16.40
2022-10-07T23:16:55.034Z,16.60
2022-10-07T23:19:22.155Z,16.60
2022-10-07T23:21:49.411Z,16.70
2022-10-07T23:24:19.465Z,16.80
2022-10-07T23:26:47.162Z,16.80
2022-10-07T23:29:15.116Z,16.80
2022-10-07T23:31:44.938Z,16.80
2022-10-07T23:34:12.281Z,16.70
2022-10-07T23:36:41.085Z,16.40
2022-10-07T23:39:08.953Z,16.30
2022-10-07T23:41:37.012Z,16.20
2022-10-07T23:44:07.966Z,16.10
2022-10-07T23:46:36.554Z,16.00
2022-10-07T23:49:09.696Z,15.80
2022-10-07T23:51:39.866Z,15.90
2022-10-07T23:54:09.895Z,15.70
2022-10-07T23:56:36.654Z,15.60
2022-10-07T23:59:04.900Z,15.50
